Time;durP1;ratioP1;P1;durP2;ratioP2;P2;SDS_P1;SDS_P2;PMS_P1;PMS_P2;Temp;Humidity;BMP_temperature;BMP_pressure;BME280_temperature;BME280_humidity;BME280_pressure;Samples;Min_cycle;Max_cycle;Signal;HPM_P1;HPM_P2
2023/04/12 00:01:00;;;;;;;3.90;1.40;;;;;;;21.00;52.68;99138.22;4995364;28;20038;-77
2023/04/12 00:03:26;;;;;;;2.95;1.10;;;;;;;20.98;52.73;99130.38;4995162;28;20117;-77
2023/04/12 00:05:53;;;;;;;3.25;1.23;;;;;;;20.98;52.85;99124.22;4975168;28;20030;-78
2023/04/12 00:08:25;;;;;;;3.70;1.30;;;;;;;20.97;52.97;99122.53;4975851;28;20089;-77
2023/04/12 00:10:51;;;;;;;4.07;1.20;;;;;;;20.96;52.79;99115.53;4975889;28;20023;-77
2023/04/12 00:13:16;;;;;;;3.65;1.45;;;;;;;20.95;52.76;99103.19;4975798;28;20053;-77
2023/04/12 00:15:42;;;;;;;2.55;0.98;;;;;;;20.95;52.65;99092.56;4975364;28;20034;-78
2023/04/12 00:18:07;;;;;;;4.53;1.08;;;;;;;20.95;52.94;99097.88;4973089;28;20054;-75
2023/04/12 00:20:33;;;;;;;4.20;1.30;;;;;;;20.96;53.27;99089.00;4973577;28;20031;-78
2023/04/12 00:22:58;;;;;;;4.90;1.42;;;;;;;20.95;53.49;99081.97;4967679;28;20055;-77
2023/04/12 00:25:23;;;;;;;5.63;1.40;;;;;;;20.95;53.59;99081.97;4968477;28;20019;-78
2023/04/12 00:27:49;;;;;;;4.53;1.55;;;;;;;20.95;53.40;99076.66;4969406;28;20468;-77
2023/04/12 00:30:15;;;;;;;6.32;1.23;;;;;;;20.93;53.51;99074.13;4951994;29;20027;-77
2023/04/12 00:32:41;;;;;;;4.38;1.60;;;;;;;20.91;53.43;99074.22;4955425;29;20031;-77
2023/04/12 00:35:06;;;;;;;4.55;1.50;;;;;;;20.91;53.37;99071.59;4955799;29;20058;-77
2023/04/12 00:37:32;;;;;;;4.80;1.55;;;;;;;20.91;53.22;99066.28;4970534;28;20436;-76
2023/04/12 00:39:58;;;;;;;2.03;1.25;;;;;;;20.89;53.29;99062.88;4994250;28;20050;-75
2023/04/12 00:42:24;;;;;;;3.65;1.13;;;;;;;20.91;53.22;99050.38;4993419;28;20133;-76
2023/04/12 00:44:50;;;;;;;5.20;1.40;;;;;;;20.89;53.54;99041.66;4974728;28;20038;-75
2023/04/12 00:47:15;;;;;;;5.30;1.15;;;;;;;20.88;53.49;99039.94;4977831;28;20026;-77
2023/04/12 00:49:41;;;;;;;2.80;1.20;;;;;;;20.87;53.42;99032.94;4991023;28;20084;-76
2023/04/12 00:52:08;;;;;;;3.00;1.20;;;;;;;20.87;53.41;99027.66;4974980;28;20541;-76
2023/04/12 00:54:35;;;;;;;4.82;1.55;;;;;;;20.87;53.46;99029.47;4975058;28;20026;-77
2023/04/12 00:57:01;;;;;;;3.42;1.38;;;;;;;20.85;53.58;99029.56;4975210;28;20049;-77
2023/04/12 00:59:26;;;;;;;2.92;1.27;;;;;;;20.84;53.41;99017.22;4986642;28;20481;-74
2023/04/12 01:01:56;;;;;;;3.78;1.38;;;;;;;20.84;53.41;99014.56;4994516;28;20027;-77
2023/04/12 01:04:22;;;;;;;4.45;1.23;;;;;;;20.85;53.47;99007.47;4994760;28;20030;-76
2023/04/12 01:07:06;;;;;;;2.80;1.15;;;;;;;20.82;53.56;99008.50;4994604;28;20027;-76
2023/04/12 01:09:40;;;;;;;4.40;1.70;;;;;;;20.84;53.55;99001.31;4980808;28;20099;-77
2023/04/12 01:12:11;;;;;;;3.50;1.30;;;;;;;20.81;53.31;98996.22;4974858;28;20100;-76
2023/04/12 01:14:45;;;;;;;2.97;1.25;;;;;;;20.81;53.55;98996.22;4974119;28;20030;-75
2023/04/12 01:17:16;;;;;;;3.25;1.30;;;;;;;20.81;53.48;98990.06;4974655;28;20028;-76
2023/04/12 01:20:12;;;;;;;4.05;1.65;;;;;;;20.82;53.39;98991.78;4984559;28;20033;-77
2023/04/12 01:22:44;;;;;;;4.00;1.50;;;;;;;20.79;53.43;98984.88;4994046;28;20037;-77
2023/04/12 01:25:28;;;;;;;2.88;1.17;;;;;;;20.78;53.42;98976.06;4994026;28;20113;-77
2023/04/12 01:27:58;;;;;;;3.80;1.30;;;;;;;20.79;53.19;98966.31;4993778;28;20065;-77
2023/04/12 01:30:26;;;;;;;3.17;1.35;;;;;;;20.76;53.31;98967.38;4993670;28;20081;-77
2023/04/12 01:32:54;;;;;;;3.50;1.45;;;;;;;20.75;53.32;98959.50;4982713;28;20050;-77
2023/04/12 01:35:21;;;;;;;2.97;1.35;;;;;;;20.74;53.32;98953.38;4974167;28;20023;-77
2023/04/12 01:37:47;;;;;;;2.38;1.20;;;;;;;20.72;53.35;98949.13;4974088;28;20030;-77
2023/04/12 01:40:13;;;;;;;3.65;1.40;;;;;;;20.74;53.38;98941.91;4974159;28;20046;-77
2023/04/12 01:42:39;;;;;;;2.75;1.27;;;;;;;20.73;53.38;98940.22;4973881;28;20362;-76
2023/04/12 01:45:05;;;;;;;3.05;1.27;;;;;;;20.71;53.52;98924.41;4974071;28;20477;-77
2023/04/12 01:47:32;;;;;;;2.95;1.20;;;;;;;20.71;53.33;98934.16;4974030;28;20058;-77
2023/04/12 01:50:17;;;;;;;3.63;1.02;;;;;;;20.71;53.65;98934.16;4972776;28;20109;-76
2023/04/12 01:53:00;;;;;;;4.22;1.10;;;;;;;20.69;53.40;98920.16;4974055;28;20038;-76
2023/04/12 01:55:29;;;;;;;3.28;1.25;;;;;;;20.68;53.18;98927.25;4973836;28;20394;-77
2023/04/12 01:57:56;;;;;;;2.70;1.13;;;;;;;20.68;53.40;98907.88;4973519;28;20030;-77
2023/04/12 02:00:22;;;;;;;2.35;1.23;;;;;;;20.65;53.35;98912.44;4973738;28;20374;-77
2023/04/12 02:02:48;;;;;;;3.70;1.33;;;;;;;20.64;53.49;98905.41;4973759;28;20043;-78
2023/04/12 02:05:14;;;;;;;4.22;1.20;;;;;;;20.63;53.48;98914.31;4973697;28;20031;-77
2023/04/12 02:07:40;;;;;;;4.50;1.65;;;;;;;20.63;53.29;98906.38;4973700;28;20324;-77
2023/04/12 02:10:06;;;;;;;2.95;1.15;;;;;;;20.62;53.53;98902.03;4973706;28;20054;-77
2023/04/12 02:12:31;;;;;;;2.03;1.10;;;;;;;20.64;53.21;98893.97;4973305;28;20067;-77
2023/04/12 02:14:57;;;;;;;3.63;1.20;;;;;;;20.62;53.49;98886.13;4973544;28;20034;-77
2023/04/12 02:17:23;;;;;;;2.67;1.27;;;;;;;20.62;53.38;98890.56;4973502;28;20023;-76
2023/04/12 02:19:48;;;;;;;2.70;1.50;;;;;;;20.61;53.31;98895.03;4973105;28;20058;-77
2023/04/12 02:22:14;;;;;;;2.10;1.30;;;;;;;20.58;53.50;98889.94;4973126;28;20050;-77
2023/04/12 02:24:40;;;;;;;2.47;1.40;;;;;;;20.59;53.40;98888.97;4973409;28;20047;-77
2023/04/12 02:27:05;;;;;;;4.05;1.30;;;;;;;20.59;53.34;98888.13;4972415;28;20042;-77
2023/04/12 02:29:31;;;;;;;3.97;1.63;;;;;;;20.58;53.25;98884.63;4973367;28;20034;-77
2023/04/12 02:31:56;;;;;;;2.33;1.13;;;;;;;20.56;53.32;98875.06;4973425;28;20030;-77
2023/04/12 02:34:22;;;;;;;2.53;1.42;;;;;;;20.55;53.13;98874.25;4973510;28;20031;-77
2023/04/12 02:36:48;;;;;;;2.75;1.58;;;;;;;20.53;53.35;98868.19;4973275;28;20041;-77
2023/04/12 02:39:17;;;;;;;4.05;1.27;;;;;;;20.55;53.17;98873.38;4979153;28;20042;-77
2023/04/12 02:41:43;;;;;;;3.42;1.50;;;;;;;20.51;53.36;98867.44;4992336;28;20047;-77
2023/04/12 02:44:08;;;;;;;2.75;1.50;;;;;;;20.51;53.41;98867.44;4970028;28;20702;-78
2023/04/12 02:46:33;;;;;;;4.88;1.67;;;;;;;20.52;53.18;98869.16;4992555;28;20431;-76
2023/04/12 02:48:59;;;;;;;3.22;1.50;;;;;;;20.50;53.25;98861.28;4992550;28;20034;-77
2023/04/12 02:51:25;;;;;;;3.80;1.27;;;;;;;20.46;53.46;98853.66;4992617;28;20061;-77
2023/04/12 02:53:50;;;;;;;2.97;1.50;;;;;;;20.49;53.16;98858.78;4991784;28;20026;-77
2023/04/12 02:56:17;;;;;;;5.68;1.20;;;;;;;20.45;53.14;98851.97;4990878;28;20030;-77
2023/04/12 02:58:43;;;;;;;4.05;1.30;;;;;;;20.46;53.25;98845.72;4992562;28;20081;-77
2023/04/12 03:01:11;;;;;;;2.40;1.40;;;;;;;20.45;53.26;98836.94;4992380;28;20038;-77
2023/04/12 03:03:37;;;;;;;3.58;1.60;;;;;;;20.45;53.20;98838.72;4992598;28;20041;-77
2023/04/12 03:06:03;;;;;;;3.03;1.60;;;;;;;20.44;53.40;98839.69;4975725;28;20473;-77
2023/04/12 03:08:29;;;;;;;3.67;1.63;;;;;;;20.45;53.23;98836.06;4973327;28;20058;-77
2023/04/12 03:10:56;;;;;;;2.92;1.40;;;;;;;20.43;53.11;98833.53;4972659;28;20030;-76
2023/04/12 03:13:21;;;;;;;3.85;1.50;;;;;;;20.44;53.01;98837.03;4973829;28;20022;-76
2023/04/12 03:15:48;;;;;;;2.80;1.45;;;;;;;20.42;53.21;98833.63;4988741;28;20031;-76
2023/04/12 03:18:14;;;;;;;3.75;1.83;;;;;;;20.41;53.25;98824.84;4992511;28;20451;-77
2023/04/12 03:20:42;;;;;;;3.65;1.60;;;;;;;20.41;53.12;98835.44;4992048;28;20040;-76
2023/04/12 03:23:08;;;;;;;2.08;1.38;;;;;;;20.38;53.08;98836.50;4992346;28;20031;-76
2023/04/12 03:25:33;;;;;;;2.60;1.25;;;;;;;20.40;53.22;98839.03;4991941;28;20015;-77
2023/04/12 03:27:59;;;;;;;2.53;1.35;;;;;;;20.40;53.08;98833.75;4986971;28;20031;-76
2023/04/12 03:30:24;;;;;;;1.92;1.20;;;;;;;20.39;53.24;98837.34;4972882;28;20023;-76
2023/04/12 03:32:49;;;;;;;3.63;1.55;;;;;;;20.38;52.98;98830.34;4975140;28;20054;-77
2023/04/12 03:35:15;;;;;;;3.53;1.67;;;;;;;20.35;53.12;98820.78;4976562;28;20397;-76
2023/04/12 03:37:42;;;;;;;3.25;1.52;;;;;;;20.34;53.34;98819.09;4976565;28;20019;-77
2023/04/12 03:40:08;;;;;;;3.15;1.55;;;;;;;20.31;53.24;98808.72;4975696;28;20130;-76
2023/04/12 03:42:34;;;;;;;2.45;1.30;;;;;;;20.33;53.25;98805.97;4976198;28;20031;-76
2023/04/12 03:45:00;;;;;;;2.38;1.33;;;;;;;20.32;53.15;98793.66;4976381;28;20046;-76
2023/04/12 03:47:25;;;;;;;4.40;1.75;;;;;;;20.33;53.13;98806.81;4976112;28;20031;-76
2023/04/12 03:49:53;;;;;;;3.65;1.52;;;;;;;20.33;53.07;98806.81;4976105;28;20113;-76
2023/04/12 03:52:19;;;;;;;4.97;1.38;;;;;;;20.33;53.14;98800.69;4976227;28;20046;-76
2023/04/12 03:54:44;;;;;;;3.78;1.40;;;;;;;20.32;53.21;98801.59;4975795;28;20552;-76
2023/04/12 03:57:10;;;;;;;2.33;1.48;;;;;;;20.32;53.19;98796.31;4975980;28;20081;-77
2023/04/12 03:59:35;;;;;;;3.35;1.33;;;;;;;20.30;53.13;98785.84;4975958;28;20045;-77
2023/04/12 04:02:01;;;;;;;2.70;1.52;;;;;;;20.29;53.31;98789.41;4976003;28;20102;-77
2023/04/12 04:04:26;;;;;;;2.83;1.58;;;;;;;20.30;53.11;98785.84;4975600;28;20043;-77
2023/04/12 04:06:52;;;;;;;3.45;1.60;;;;;;;20.28;53.12;98790.38;4975939;28;20101;-76
2023/04/12 04:09:18;;;;;;;2.42;1.25;;;;;;;20.28;53.14;98786.91;4958160;28;20026;-77
2023/04/12 04:11:44;;;;;;;3.00;1.50;;;;;;;20.27;53.08;98791.34;4975939;28;20042;-77
2023/04/12 04:14:10;;;;;;;2.70;1.42;;;;;;;20.28;53.18;98798.31;4975856;28;20023;-77
2023/04/12 04:16:35;;;;;;;2.78;1.30;;;;;;;20.25;53.17;98793.25;4975550;28;20500;-77
2023/04/12 04:19:01;;;;;;;3.58;1.40;;;;;;;20.23;53.19;98793.34;4975727;28;20397;-77
2023/04/12 04:21:29;;;;;;;4.50;1.40;;;;;;;20.23;53.30;98790.72;4975556;28;20110;-77
2023/04/12 04:23:57;;;;;;;2.60;1.45;;;;;;;20.23;53.34;98795.16;4975295;28;20027;-77
2023/04/12 04:26:32;;;;;;;2.63;1.50;;;;;;;20.23;53.09;98800.44;4975746;28;20037;-77
2023/04/12 04:29:00;;;;;;;2.75;1.40;;;;;;;20.22;53.00;98801.41;4975643;28;20478;-77
2023/04/12 04:31:36;;;;;;;3.83;1.38;;;;;;;20.22;53.12;98798.75;4975438;28;20034;-77
2023/04/12 04:34:05;;;;;;;4.63;1.50;;;;;;;20.23;52.91;98811.03;4975603;28;20110;-77
2023/04/12 04:36:32;;;;;;;3.42;1.40;;;;;;;20.21;52.99;98811.16;4975540;28;20038;-77
2023/04/12 04:38:58;;;;;;;2.63;1.35;;;;;;;20.21;53.10;98812.97;4970574;28;20039;-76
2023/04/12 04:41:25;;;;;;;4.43;1.50;;;;;;;20.19;52.86;98815.69;4974666;28;20085;-77
2023/04/12 04:43:50;;;;;;;3.25;1.58;;;;;;;20.19;53.04;98812.22;4974366;28;20019;-78
2023/04/12 04:46:19;;;;;;;3.92;1.60;;;;;;;20.17;53.12;98806.16;4972809;28;20015;-76
2023/04/12 04:48:46;;;;;;;2.40;1.40;;;;;;;20.18;53.18;98802.56;4974321;28;20031;-76
2023/04/12 04:51:11;;;;;;;3.95;1.73;;;;;;;20.18;53.31;98807.84;4974617;28;20031;-74
2023/04/12 04:53:37;;;;;;;4.18;1.73;;;;;;;20.16;53.07;98805.31;4975189;28;20054;-74
2023/04/12 04:56:02;;;;;;;3.50;1.83;;;;;;;20.16;53.20;98799.16;4974918;28;20027;-75
2023/04/12 04:58:28;;;;;;;3.10;1.50;;;;;;;20.16;53.27;98804.47;4973438;28;20166;-75
2023/04/12 05:00:56;;;;;;;4.55;1.40;;;;;;;20.16;53.28;98807.13;4974812;28;20473;-74
2023/04/12 05:03:22;;;;;;;3.42;1.67;;;;;;;20.15;53.49;98819.53;4974947;28;20030;-75
2023/04/12 05:05:50;;;;;;;3.40;1.58;;;;;;;20.16;53.46;98823.00;4974603;28;20484;-75
2023/04/12 05:08:16;;;;;;;2.85;1.67;;;;;;;20.15;53.83;98818.66;4974611;28;20062;-75
2023/04/12 05:10:42;;;;;;;4.45;1.60;;;;;;;20.12;53.96;98820.59;4966090;28;20086;-75
2023/04/12 05:13:08;;;;;;;8.40;2.33;;;;;;;20.11;53.87;98818.88;4974738;28;20035;-75
2023/04/12 05:15:34;;;;;;;3.67;1.70;;;;;;;20.10;53.63;98822.47;4975270;28;20037;-75
2023/04/12 05:18:00;;;;;;;6.47;1.80;;;;;;;20.10;54.17;98833.06;4974731;28;20035;-76
2023/04/12 05:20:25;;;;;;;8.75;2.42;;;;;;;20.12;56.37;98830.31;4974068;28;20401;-77
2023/04/12 05:22:50;;;;;;;14.85;3.20;;;;;;;20.14;57.29;98832.88;4972651;28;20077;-77
2023/04/12 05:25:16;;;;;;;10.75;2.50;;;;;;;20.14;57.16;98832.88;4964902;28;20106;-78
2023/04/12 05:27:43;;;;;;;5.03;2.20;;;;;;;20.14;57.65;98832.88;4964520;28;20457;-77
2023/04/12 05:30:09;;;;;;;6.45;2.65;;;;;;;20.17;57.47;98837.94;4970425;28;20104;-78
2023/04/12 05:32:34;;;;;;;7.65;2.20;;;;;;;20.17;57.88;98822.06;4963620;28;20522;-77
2023/04/12 05:34:59;;;;;;;6.82;2.55;;;;;;;20.17;58.04;98827.34;4967785;28;20049;-77
2023/04/12 05:37:26;;;;;;;7.65;2.17;;;;;;;20.17;57.96;98827.34;4973913;28;20114;-78
2023/04/12 05:39:52;;;;;;;9.75;2.30;;;;;;;20.16;57.79;98820.38;4973916;28;20054;-77
2023/04/12 05:42:17;;;;;;;22.55;7.38;;;;;;;20.19;57.60;98820.16;4968540;28;20119;-77
2023/04/12 05:44:44;;;;;;;24.10;8.60;;;;;;;20.19;57.39;98809.56;4972272;28;20465;-77
2023/04/12 05:47:09;;;;;;;16.67;3.22;;;;;;;20.20;57.47;98811.25;4973344;28;20037;-78
2023/04/12 05:49:35;;;;;;;7.75;2.53;;;;;;;20.17;57.46;98806.16;4973047;28;20030;-78
2023/04/12 05:52:01;;;;;;;12.75;3.22;;;;;;;20.14;57.35;98801.09;4969720;28;20043;-78
2023/04/12 05:54:26;;;;;;;9.38;2.67;;;;;;;20.12;57.10;98796.75;4972515;28;20042;-77
2023/04/12 05:56:53;;;;;;;9.40;2.90;;;;;;;20.16;57.21;98804.47;4970754;28;20030;-77
2023/04/12 05:59:19;;;;;;;7.63;2.90;;;;;;;20.13;56.84;98808.16;4968777;28;20022;-77
2023/04/12 06:01:45;;;;;;;8.00;2.30;;;;;;;20.16;57.00;98815.06;4955230;28;20033;-78
2023/04/12 06:04:10;;;;;;;8.48;3.10;;;;;;;20.12;56.89;98810.00;4971144;28;20400;-77
2023/04/12 06:06:36;;;;;;;6.32;2.50;;;;;;;20.11;56.85;98808.25;4972215;28;20026;-78
2023/04/12 06:09:03;;;;;;;6.22;2.25;;;;;;;20.11;56.72;98813.56;4953396;28;20027;-77
2023/04/12 06:11:30;;;;;;;5.68;2.40;;;;;;;20.14;56.65;98811.69;4968654;28;20050;-77
2023/04/12 06:13:56;;;;;;;6.30;2.72;;;;;;;20.14;56.54;98823.09;4968824;28;20106;-76
2023/04/12 06:16:21;;;;;;;6.45;2.67;;;;;;;20.14;56.22;98824.94;4961614;28;20117;-77
2023/04/12 06:18:46;;;;;;;6.90;2.70;;;;;;;20.14;56.34;98830.22;4968943;28;20029;-77
2023/04/12 06:21:12;;;;;;;5.13;2.28;;;;;;;20.15;56.49;98834.56;4973231;28;20054;-77
2023/04/12 06:23:37;;;;;;;8.57;2.50;;;;;;;20.15;56.43;98839.84;4960028;28;20481;-76
2023/04/12 06:26:03;;;;;;;6.40;2.58;;;;;;;20.13;56.55;98845.25;4968808;28;20031;-73
2023/04/12 06:28:28;;;;;;;7.00;2.60;;;;;;;20.14;56.25;98849.59;4964598;28;20759;-73
2023/04/12 06:30:54;;;;;;;8.70;2.63;;;;;;;20.12;56.44;98847.06;4967116;28;20035;-73
2023/04/12 06:33:21;;;;;;;8.30;2.30;;;;;;;20.11;56.51;98850.66;4970200;28;20030;-73
2023/04/12 06:35:47;;;;;;;7.25;2.85;;;;;;;20.11;56.43;98855.94;4970249;28;20026;-73
2023/04/12 06:38:12;;;;;;;8.98;2.30;;;;;;;20.11;56.46;98855.13;4972725;28;20070;-73
2023/04/12 06:40:38;;;;;;;11.07;3.00;;;;;;;20.11;56.29;98861.25;4970372;28;20051;-73
2023/04/12 06:43:03;;;;;;;5.65;2.53;;;;;;;20.10;56.37;98864.84;4972365;28;20019;-73
2023/04/12 06:45:29;;;;;;;12.52;2.58;;;;;;;20.12;56.39;98865.63;4970046;28;20026;-73
2023/04/12 06:47:55;;;;;;;8.85;2.30;;;;;;;20.12;56.23;98857.66;4972421;28;20620;-73
2023/04/12 06:50:21;;;;;;;8.25;2.83;;;;;;;20.10;56.46;98859.53;4972912;28;20031;-73
2023/04/12 06:52:47;;;;;;;10.77;2.67;;;;;;;20.12;56.03;98857.66;4972984;28;20023;-73
2023/04/12 06:55:13;;;;;;;9.00;2.63;;;;;;;20.11;56.03;98860.41;4973114;28;20102;-74
2023/04/12 06:57:41;;;;;;;9.18;2.40;;;;;;;20.09;56.14;98860.50;4973216;28;20037;-73
2023/04/12 07:00:07;;;;;;;8.18;3.10;;;;;;;20.10;55.96;98864.84;4973025;28;20026;-73
2023/04/12 07:02:33;;;;;;;6.80;2.50;;;;;;;20.11;56.00;98849.81;4972526;28;20018;-73
2023/04/12 07:04:58;;;;;;;5.80;2.25;;;;;;;20.11;55.95;98857.75;4973058;28;20030;-73
2023/04/12 07:07:23;;;;;;;7.63;3.00;;;;;;;20.09;55.79;98851.69;4974730;28;20501;-73
2023/04/12 07:09:51;;;;;;;6.60;2.45;;;;;;;20.12;55.53;98849.72;4976855;28;20027;-73
2023/04/12 07:12:16;;;;;;;5.88;2.50;;;;;;;20.10;55.70;98848.94;4976877;28;20485;-74
2023/04/12 07:14:41;;;;;;;6.68;2.47;;;;;;;20.11;55.45;98840.06;4959325;28;20026;-73
2023/04/12 07:17:07;;;;;;;5.55;2.92;;;;;;;20.10;55.53;98835.72;4976642;28;20429;-73
2023/04/12 07:19:32;;;;;;;5.95;2.50;;;;;;;20.12;55.38;98832.97;4976782;28;20508;-73
2023/04/12 07:21:58;;;;;;;8.68;2.70;;;;;;;20.11;55.14;98828.63;4976427;28;20037;-73
2023/04/12 07:24:23;;;;;;;6.47;2.75;;;;;;;20.10;55.33;98827.75;4976644;28;20019;-73
2023/04/12 07:26:51;;;;;;;6.65;2.80;;;;;;;20.14;55.19;98822.28;4976487;28;20031;-73
2023/04/12 07:29:16;;;;;;;6.07;2.75;;;;;;;20.11;55.14;98824.16;4976308;28;20107;-72
2023/04/12 07:31:42;;;;;;;5.30;2.53;;;;;;;20.11;55.22;98831.28;4958738;28;20035;-73
2023/04/12 07:34:07;;;;;;;7.57;2.78;;;;;;;20.14;55.19;98827.56;4975983;28;20118;-73
2023/04/12 07:36:32;;;;;;;6.47;2.60;;;;;;;20.12;54.93;98815.28;4976486;28;20023;-74
2023/04/12 07:38:58;;;;;;;5.43;2.70;;;;;;;20.15;54.90;98813.38;4980121;28;20472;-74
2023/04/12 07:41:23;;;;;;;4.40;2.30;;;;;;;20.12;55.05;98810.00;4995742;28;20061;-73
2023/04/12 07:43:49;;;;;;;4.88;2.63;;;;;;;20.12;54.78;98807.34;4980297;28;20577;-73
2023/04/12 07:46:14;;;;;;;6.57;2.67;;;;;;;20.11;54.76;98810.09;4975803;28;20101;-73
2023/04/12 07:48:40;;;;;;;5.00;2.50;;;;;;;20.12;54.71;98799.41;4976234;28;20029;-73
2023/04/12 07:51:05;;;;;;;6.22;3.05;;;;;;;20.10;54.87;98788.03;4976288;28;20019;-73
2023/04/12 07:53:31;;;;;;;3.95;2.13;;;;;;;20.09;54.85;98794.28;4988733;28;20374;-73
2023/04/12 07:55:56;;;;;;;3.97;2.45;;;;;;;20.12;54.70;98802.03;4995317;28;20057;-74
2023/04/12 07:58:23;;;;;;;6.03;2.88;;;;;;;20.10;54.64;98801.28;4995394;28;20026;-73
2023/04/12 08:00:49;;;;;;;5.18;2.75;;;;;;;20.11;54.61;98807.44;4995009;28;20033;-74
2023/04/12 08:03:16;;;;;;;5.15;2.63;;;;;;;20.12;54.72;98801.19;4985007;28;20027;-74
2023/04/12 08:05:42;;;;;;;5.70;2.50;;;;;;;20.10;54.64;98801.28;4958270;28;20027;-73
2023/04/12 08:08:09;;;;;;;4.20;2.40;;;;;;;20.09;54.61;98804.03;4975906;28;20074;-73
2023/04/12 08:10:35;;;;;;;4.88;2.60;;;;;;;20.10;54.55;98811.88;4975678;28;20386;-73
2023/04/12 08:13:02;;;;;;;4.10;2.30;;;;;;;20.09;54.48;98820.78;4975820;28;20105;-74
2023/04/12 08:15:27;;;;;;;4.97;2.80;;;;;;;20.08;54.43;98818.22;4975323;28;20034;-73
2023/04/12 08:17:53;;;;;;;4.45;2.30;;;;;;;20.08;54.47;98829.69;4975240;28;20409;-73
2023/04/12 08:20:18;;;;;;;5.45;2.58;;;;;;;20.10;54.49;98824.28;4974949;28;20038;-73
2023/04/12 08:22:45;;;;;;;4.35;2.65;;;;;;;20.10;54.52;98822.47;4975440;28;20407;-73
2023/04/12 08:25:11;;;;;;;5.50;2.60;;;;;;;20.12;54.30;98833.81;4975347;28;20027;-73
2023/04/12 08:27:40;;;;;;;5.00;2.50;;;;;;;20.11;54.41;98818.03;4975486;28;20029;-73
2023/04/12 08:30:06;;;;;;;4.40;2.40;;;;;;;20.08;54.30;98824.38;4987525;28;20428;-73
2023/04/12 08:32:31;;;;;;;4.60;2.35;;;;;;;20.08;54.26;98829.69;4994813;28;20073;-73
2023/04/12 08:34:57;;;;;;;5.03;2.42;;;;;;;20.08;53.96;98837.63;4994669;28;20511;-73
2023/04/12 08:37:22;;;;;;;5.65;2.70;;;;;;;20.09;54.11;98836.66;4994561;28;20381;-73
2023/04/12 08:39:47;;;;;;;5.70;2.65;;;;;;;20.10;54.19;98838.34;4994450;28;20524;-73
2023/04/12 08:42:15;;;;;;;4.32;2.40;;;;;;;20.08;54.21;98839.41;4994606;28;20408;-73
2023/04/12 08:44:41;;;;;;;4.75;2.20;;;;;;;20.09;54.01;98841.97;4975178;28;20122;-73
2023/04/12 08:47:09;;;;;;;6.43;2.63;;;;;;;20.09;54.20;98835.81;4975083;28;20031;-73
2023/04/12 08:49:35;;;;;;;5.88;2.83;;;;;;;20.12;53.84;98839.13;4975492;28;20110;-74
2023/04/12 08:52:06;;;;;;;4.40;2.42;;;;;;;20.11;54.23;98828.63;4977148;28;20038;-73
2023/04/12 08:54:35;;;;;;;3.88;2.42;;;;;;;20.11;54.13;98833.94;4994353;28;20031;-72
2023/04/12 08:57:06;;;;;;;4.35;2.50;;;;;;;20.11;53.97;98832.09;4994386;28;20500;-73
2023/04/12 08:59:34;;;;;;;5.55;2.70;;;;;;;20.11;53.87;98840.06;4994124;28;20030;-73
2023/04/12 09:01:59;;;;;;;5.47;2.65;;;;;;;20.09;54.00;98841.97;4994234;28;20407;-73
2023/04/12 09:04:25;;;;;;;5.45;2.90;;;;;;;20.12;53.71;98835.63;4994338;28;20037;-73
2023/04/12 09:06:51;;;;;;;6.90;2.55;;;;;;;20.10;53.71;98833.06;4994316;28;20073;-72
2023/04/12 09:09:17;;;;;;;4.32;2.13;;;;;;;20.12;53.80;98831.19;4993909;28;20065;-73
2023/04/12 09:11:42;;;;;;;4.82;2.70;;;;;;;20.10;53.90;98833.06;4994110;28;20022;-73
2023/04/12 09:14:22;;;;;;;3.88;2.30;;;;;;;20.11;53.67;98834.75;4993932;28;20072;-73
2023/04/12 09:16:48;;;;;;;5.28;2.92;;;;;;;20.13;53.61;98832.00;4983576;28;20449;-74
2023/04/12 09:19:13;;;;;;;4.55;2.40;;;;;;;20.11;53.62;98845.34;4974430;28;20053;-74
2023/04/12 09:21:53;;;;;;;5.20;2.33;;;;;;;20.16;53.56;98841.56;4974609;28;20058;-73
2023/04/12 09:24:22;;;;;;;4.80;2.30;;;;;;;20.14;53.62;98832.88;4974658;28;20019;-73
2023/04/12 09:26:48;;;;;;;4.68;2.20;;;;;;;20.11;53.76;98834.75;4974075;28;20033;-74
2023/04/12 09:29:23;;;;;;;4.18;2.50;;;;;;;20.14;53.67;98838.16;4974177;28;20028;-74
2023/04/12 09:32:06;;;;;;;4.85;3.00;;;;;;;20.16;53.55;98838.91;4974346;28;20031;-74
2023/04/12 09:34:33;;;;;;;6.43;2.67;;;;;;;20.15;53.53;98835.41;4974052;28;20035;-73
2023/04/12 09:36:59;;;;;;;4.88;2.40;;;;;;;20.16;53.47;98831.81;4974206;28;20469;-74
2023/04/12 09:39:32;;;;;;;4.85;2.50;;;;;;;20.15;53.70;98830.13;4973970;28;20080;-73
2023/04/12 09:42:08;;;;;;;4.50;2.53;;;;;;;20.16;53.48;98833.59;4973699;28;20038;-73
2023/04/12 09:44:34;;;;;;;4.97;2.58;;;;;;;20.18;53.61;98842.28;4973936;28;20031;-73
2023/04/12 09:47:04;;;;;;;4.70;2.50;;;;;;;20.20;53.45;98837.75;4973910;28;20037;-74
2023/04/12 09:49:40;;;;;;;5.18;2.58;;;;;;;20.20;53.56;98837.75;4974051;28;20034;-73
2023/04/12 09:52:07;;;;;;;4.60;2.22;;;;;;;20.21;53.41;98839.44;4956530;28;20081;-74
2023/04/12 09:54:53;;;;;;;4.90;2.45;;;;;;;20.21;53.33;98834.16;4973834;28;20042;-73
2023/04/12 09:57:21;;;;;;;4.97;2.60;;;;;;;20.21;53.24;98829.72;4973540;28;20453;-73
2023/04/12 09:59:50;;;;;;;5.05;2.47;;;;;;;20.25;53.28;98835.66;4973746;28;20093;-74
2023/04/12 10:02:17;;;;;;;4.75;2.25;;;;;;;20.28;53.34;98839.88;4973759;28;20437;-73
2023/04/12 10:04:43;;;;;;;4.28;2.55;;;;;;;20.27;53.14;98839.03;4973827;28;20034;-73
2023/04/12 10:07:09;;;;;;;4.63;2.80;;;;;;;20.29;53.06;98842.41;4973551;28;20130;-73
2023/04/12 10:09:38;;;;;;;3.75;2.10;;;;;;;20.31;52.94;98840.53;4973682;28;20034;-74
2023/04/12 10:12:04;;;;;;;4.68;2.45;;;;;;;20.32;53.01;98844.00;4973099;28;20050;-73
2023/04/12 10:14:30;;;;;;;4.85;2.67;;;;;;;20.29;53.30;98847.72;4973512;28;20374;-74
2023/04/12 10:17:01;;;;;;;4.20;2.33;;;;;;;20.28;53.16;98848.66;4973721;28;20047;-73
2023/04/12 10:19:28;;;;;;;4.47;2.10;;;;;;;20.32;53.11;98847.50;4973401;28;20102;-73
2023/04/12 10:21:57;;;;;;;5.07;2.58;;;;;;;20.31;53.15;98847.59;4973421;28;20034;-73
2023/04/12 10:24:24;;;;;;;4.18;2.30;;;;;;;20.32;53.05;98842.22;4973383;28;20511;-73
2023/04/12 10:26:51;;;;;;;4.70;2.53;;;;;;;20.36;52.94;98841.06;4973082;28;20027;-73
2023/04/12 10:29:29;;;;;;;4.70;2.47;;;;;;;20.37;52.97;98834.81;4973507;28;20026;-73
2023/04/12 10:31:56;;;;;;;5.15;2.20;;;;;;;20.36;52.84;98833.13;4973288;28;20027;-73
2023/04/12 10:34:30;;;;;;;4.65;2.25;;;;;;;20.36;52.89;98833.13;4973313;28;20035;-73
2023/04/12 10:36:58;;;;;;;5.82;2.97;;;;;;;20.39;52.79;98822.28;4973374;28;20037;-73
2023/04/12 10:39:43;;;;;;;3.90;2.47;;;;;;;20.40;52.67;98828.44;4972807;28;20054;-73
2023/04/12 10:42:26;;;;;;;4.38;2.55;;;;;;;20.41;52.88;98829.28;4972695;28;20026;-73
2023/04/12 10:44:56;;;;;;;4.47;2.60;;;;;;;20.42;52.60;98826.53;4953967;29;20047;-73
2023/04/12 10:47:51;;;;;;;4.25;2.65;;;;;;;20.42;52.87;98815.94;4953800;29;20034;-73
2023/04/12 10:50:32;;;;;;;4.43;2.08;;;;;;;20.42;52.75;98805.34;4936247;29;20050;-73
2023/04/12 10:53:20;;;;;;;5.50;2.53;;;;;;;20.42;52.64;98809.78;4953826;29;20027;-73
2023/04/12 10:55:46;;;;;;;4.15;2.53;;;;;;;20.44;52.75;98807.88;4953551;29;20028;-74
2023/04/12 10:58:46;;;;;;;3.63;2.38;;;;;;;20.43;52.89;98812.31;4953853;29;20552;-73
2023/04/12 11:01:12;;;;;;;3.95;2.33;;;;;;;20.45;52.49;98806.94;4953658;29;20063;-73
2023/04/12 11:04:14;;;;;;;4.50;2.60;;;;;;;20.45;52.60;98809.56;4974988;28;20062;-73
2023/04/12 11:06:51;;;;;;;4.53;2.60;;;;;;;20.46;52.45;98801.53;4972047;28;20060;-73
2023/04/12 11:09:43;;;;;;;4.65;2.28;;;;;;;20.47;52.45;98797.06;4972242;28;20030;-73
2023/04/12 11:12:08;;;;;;;4.53;2.42;;;;;;;20.48;52.54;98804.06;4961583;28;20545;-73
2023/04/12 11:14:42;;;;;;;6.75;2.88;;;;;;;20.47;52.59;98812.94;4972293;28;20230;-73
2023/04/12 11:17:08;;;;;;;8.50;2.50;;;;;;;20.48;52.77;98814.69;4969167;28;20050;-73
2023/04/12 11:19:58;;;;;;;6.03;2.72;;;;;;;20.48;52.60;98820.81;4971630;28;20054;-72
2023/04/12 11:22:26;;;;;;;7.07;2.55;;;;;;;20.50;52.58;98818.06;4965022;28;20039;-73
2023/04/12 11:24:54;;;;;;;7.93;3.15;;;;;;;20.49;52.45;98821.66;4972387;28;20437;-73
2023/04/12 11:27:21;;;;;;;6.80;2.83;;;;;;;20.51;52.68;98819.75;4971450;28;20031;-73
2023/04/12 11:29:53;;;;;;;5.60;2.72;;;;;;;20.50;52.71;98818.06;4973034;28;20401;-73
2023/04/12 11:32:19;;;;;;;7.22;3.08;;;;;;;20.51;52.60;98822.41;4972778;28;20031;-73
2023/04/12 11:34:46;;;;;;;8.57;2.97;;;;;;;20.51;52.47;98814.44;4972472;28;20029;-73
2023/04/12 11:37:12;;;;;;;6.38;3.05;;;;;;;20.52;52.43;98817.00;4972527;28;20019;-73